createdAt,value
2022-11-19T00:00:12.701Z,0.50
2022-11-19T00:02:41.454Z,0.53
2022-11-19T00:05:10.370Z,0.42
2022-11-19T00:07:39.204Z,0.46
2022-11-19T00:10:08.757Z,0.46
2022-11-19T00:13:00.422Z,0.46
2022-11-19T00:15:30.807Z,0.47
2022-11-19T00:18:00.606Z,0.43
2022-11-19T00:20:30.294Z,0.45
2022-11-19T00:22:59.372Z,0.46
2022-11-19T00:25:31.123Z,0.33
2022-11-19T00:28:00.638Z,0.37
2022-11-19T00:30:47.511Z,0.39
2022-11-19T00:33:17.372Z,0.38
2022-11-19T00:35:46.094Z,0.41
2022-11-19T00:38:14.759Z,0.38
2022-11-19T00:40:44.350Z,0.37
2022-11-19T00:43:30.724Z,0.32
2022-11-19T00:46:00.841Z,0.23
2022-11-19T00:48:29.645Z,0.22
2022-11-19T00:50:58.418Z,0.19
2022-11-19T00:53:27.554Z,0.15
2022-11-19T00:55:56.397Z,-0.03
2022-11-19T00:58:25.174Z,-0.25
2022-11-19T01:00:53.936Z,-0.21
2022-11-19T01:03:25.343Z,-0.27
2022-11-19T01:05:54.532Z,-0.45
2022-11-19T01:08:23.824Z,-0.46
2022-11-19T01:10:52.630Z,-0.42
2022-11-19T01:13:36.888Z,-0.48
2022-11-19T01:16:09.232Z,-0.68
2022-11-19T01:18:42.377Z,-0.86
2022-11-19T01:21:13.456Z,-0.74
2022-11-19T01:23:44.648Z,-0.70
2022-11-19T01:26:14.859Z,-0.63
2022-11-19T01:28:44.547Z,-0.59
2022-11-19T01:31:16.511Z,-0.67
2022-11-19T01:33:47.052Z,-0.73
2022-11-19T01:36:18.509Z,-0.73
2022-11-19T01:38:50.911Z,-0.72
2022-11-19T01:41:20.709Z,-0.99
2022-11-19T01:43:53.036Z,-0.95
2022-11-19T01:46:24.834Z,-1.14
2022-11-19T01:49:00.098Z,-0.98
2022-11-19T01:51:38.306Z,-0.85
2022-11-19T01:54:13.880Z,-0.76
2022-11-19T01:56:42.869Z,-0.89
2022-11-19T01:59:19.481Z,-0.82
2022-11-19T02:01:48.619Z,-0.78
2022-11-19T02:04:21.776Z,-0.71
2022-11-19T02:06:50.661Z,-0.67
2022-11-19T02:09:20.493Z,-0.69
2022-11-19T02:12:18.062Z,-0.63
2022-11-19T02:15:13.697Z,-0.66
2022-11-19T02:18:13.261Z,-0.66
2022-11-19T02:21:20.471Z,-0.70
2022-11-19T02:24:39.071Z,-0.75
2022-11-19T02:27:52.644Z,-0.88
2022-11-19T02:30:22.863Z,-0.90
2022-11-19T02:33:07.919Z,-0.91
2022-11-19T02:35:51.410Z,-1.05
2022-11-19T02:38:34.896Z,-1.02
2022-11-19T02:41:28.520Z,-1.07
2022-11-19T02:44:21.720Z,-1.14
2022-11-19T02:46:55.191Z,-1.19
2022-11-19T02:49:31.745Z,-1.37
2022-11-19T02:52:01.748Z,-1.55
2022-11-19T02:54:30.565Z,-1.67
2022-11-19T02:56:59.959Z,-1.74
2022-11-19T02:59:56.138Z,-1.62
2022-11-19T03:02:49.500Z,-1.57
2022-11-19T03:05:26.791Z,-1.52
2022-11-19T03:07:55.717Z,-1.63
2022-11-19T03:10:31.667Z,-1.53
2022-11-19T03:13:29.896Z,-1.49
2022-11-19T03:16:17.297Z,-1.44
2022-11-19T03:18:56.565Z,-1.44
2022-11-19T03:21:34.789Z,-1.55
2022-11-19T03:24:12.803Z,-1.58
2022-11-19T03:26:48.268Z,-1.54
2022-11-19T03:29:18.416Z,-1.60
2022-11-19T03:31:54.682Z,-1.71
2022-11-19T03:34:30.082Z,-1.71
2022-11-19T03:37:02.973Z,-1.76
2022-11-19T03:39:33.214Z,-2.02
2022-11-19T03:42:02.444Z,-1.91
2022-11-19T03:44:40.104Z,-1.89
2022-11-19T03:47:14.919Z,-2.00
2022-11-19T03:49:52.622Z,-2.10
2022-11-19T03:52:22.886Z,-1.96
2022-11-19T03:54:51.864Z,-1.92
2022-11-19T03:57:24.974Z,-1.90
2022-11-19T03:59:53.663Z,-1.91
2022-11-19T04:02:22.751Z,-1.90
2022-11-19T04:04:52.848Z,-2.07
2022-11-19T04:07:24.380Z,-2.17
2022-11-19T04:09:53.097Z,-2.20
2022-11-19T04:12:24.606Z,-2.13
2022-11-19T04:14:54.183Z,-2.08
2022-11-19T04:17:22.973Z,-2.03
2022-11-19T04:19:53.164Z,-2.19
2022-11-19T04:22:21.916Z,-2.35
2022-11-19T04:24:50.564Z,-2.28
2022-11-19T04:27:19.259Z,-2.41
2022-11-19T04:29:48.087Z,-2.42
2022-11-19T04:32:17.283Z,-2.44
2022-11-19T04:34:46.243Z,-2.45
2022-11-19T04:37:16.407Z,-2.54
2022-11-19T04:39:45.344Z,-2.60
2022-11-19T04:42:14.074Z,-2.62
2022-11-19T04:44:42.793Z,-2.58
2022-11-19T04:47:11.670Z,-2.50
2022-11-19T04:49:40.366Z,-2.56
2022-11-19T04:52:09.080Z,-2.64
2022-11-19T04:54:39.364Z,-2.76
2022-11-19T04:57:08.101Z,-2.65
2022-11-19T04:59:36.835Z,-2.73
2022-11-19T05:02:05.610Z,-2.83
2022-11-19T05:04:34.500Z,-2.78
2022-11-19T05:07:04.412Z,-2.72
2022-11-19T05:09:33.480Z,-2.76
2022-11-19T05:12:03.626Z,-2.77
2022-11-19T05:14:34.755Z,-2.67
2022-11-19T05:17:03.489Z,-2.67
2022-11-19T05:19:32.613Z,-2.70
2022-11-19T05:22:01.985Z,-2.73
2022-11-19T05:24:31.008Z,-2.75
2022-11-19T05:26:59.882Z,-2.75
2022-11-19T05:29:31.137Z,-2.83
2022-11-19T05:32:00.919Z,-2.90
2022-11-19T05:34:29.717Z,-2.99
2022-11-19T05:36:58.663Z,-2.87
2022-11-19T05:39:27.871Z,-2.81
2022-11-19T05:41:56.983Z,-2.94
2022-11-19T05:44:26.634Z,-3.01
2022-11-19T05:46:59.837Z,-2.92
2022-11-19T05:49:28.672Z,-3.05
2022-11-19T05:51:57.902Z,-3.06
2022-11-19T05:54:26.863Z,-3.09
2022-11-19T05:56:56.278Z,-3.01
2022-11-19T05:59:26.085Z,-3.05
2022-11-19T06:01:57.355Z,-3.06
2022-11-19T06:04:26.452Z,-3.03
2022-11-19T06:06:55.198Z,-2.97
2022-11-19T06:09:24.517Z,-3.00
2022-11-19T06:11:53.402Z,-3.13
2022-11-19T06:14:24.878Z,-3.21
2022-11-19T06:16:58.097Z,-3.26
2022-11-19T06:19:28.119Z,-3.38
2022-11-19T06:21:57.474Z,-3.50
2022-11-19T06:24:26.575Z,-3.46
2022-11-19T06:26:55.307Z,-3.46
2022-11-19T06:29:24.270Z,-3.42
2022-11-19T06:31:53.028Z,-3.32
2022-11-19T06:34:23.447Z,-3.30
2022-11-19T06:36:53.672Z,-3.24
2022-11-19T06:39:22.783Z,-3.18
2022-11-19T06:41:51.951Z,-3.13
2022-11-19T06:44:20.606Z,-3.14
2022-11-19T06:46:49.277Z,-3.27
2022-11-19T06:49:20.272Z,-3.19
2022-11-19T06:51:50.836Z,-3.21
2022-11-19T06:54:19.591Z,-3.18
2022-11-19T06:56:48.534Z,-3.13
2022-11-19T06:59:17.805Z,-3.09
2022-11-19T07:01:49.675Z,-3.20
2022-11-19T07:04:18.764Z,-3.34
2022-11-19T07:06:51.320Z,-3.26
2022-11-19T07:09:20.292Z,-3.17
2022-11-19T07:11:50.158Z,-3.10
2022-11-19T07:14:19.260Z,-3.05
2022-11-19T07:16:48.148Z,-3.03
2022-11-19T07:19:17.577Z,-3.00
2022-11-19T07:21:46.665Z,-3.00
2022-11-19T07:24:18.885Z,-2.97
2022-11-19T07:26:47.681Z,-3.02
2022-11-19T07:29:17.922Z,-2.92
2022-11-19T07:31:50.514Z,-2.92
2022-11-19T07:34:19.894Z,-2.91
2022-11-19T07:36:49.474Z,-2.87
2022-11-19T07:39:20.102Z,-2.85
2022-11-19T07:42:06.868Z,-2.82
2022-11-19T07:44:35.792Z,-2.77
2022-11-19T07:47:05.451Z,-2.79
2022-11-19T07:49:34.485Z,-2.75
2022-11-19T07:52:03.397Z,-2.72
2022-11-19T07:54:33.904Z,-2.71
2022-11-19T07:57:02.762Z,-2.69
2022-11-19T07:59:33.163Z,-2.63
2022-11-19T08:02:02.234Z,-2.60
2022-11-19T08:04:32.042Z,-2.58
2022-11-19T08:07:03.382Z,-2.57
2022-11-19T08:09:34.314Z,-2.53
2022-11-19T08:12:03.396Z,-2.53
2022-11-19T08:14:32.577Z,-2.52
2022-11-19T08:17:21.148Z,-2.54
2022-11-19T08:19:50.633Z,-2.71
2022-11-19T08:22:20.863Z,-2.65
2022-11-19T08:24:51.180Z,-2.57
2022-11-19T08:27:20.118Z,-2.54
2022-11-19T08:29:49.702Z,-2.49
2022-11-19T08:32:19.017Z,-2.44
2022-11-19T08:34:50.775Z,-2.39
2022-11-19T08:37:19.583Z,-2.33
2022-11-19T08:39:48.384Z,-2.27
2022-11-19T08:42:38.517Z,-2.21
2022-11-19T08:45:10.379Z,-2.23
2022-11-19T08:47:41.052Z,-2.19
2022-11-19T08:50:11.503Z,-2.26
2022-11-19T08:52:40.422Z,-2.28
2022-11-19T08:55:15.538Z,-2.22
2022-11-19T08:57:49.789Z,-2.18
2022-11-19T09:00:21.471Z,-2.22
2022-11-19T09:02:50.760Z,-2.16
2022-11-19T09:05:19.882Z,-2.23
2022-11-19T09:07:49.211Z,-2.12
2022-11-19T09:10:19.349Z,-2.08
2022-11-19T09:12:50.559Z,-2.08
2022-11-19T09:15:19.689Z,-2.00
2022-11-19T09:17:48.739Z,-2.12
2022-11-19T09:20:20.318Z,-1.99
2022-11-19T09:22:52.615Z,-1.94
2022-11-19T09:25:22.376Z,-1.85
2022-11-19T09:27:56.120Z,-1.78
2022-11-19T09:30:26.165Z,-1.75
2022-11-19T09:32:56.229Z,-1.68
2022-11-19T09:35:26.297Z,-1.67
2022-11-19T09:37:55.638Z,-1.66
2022-11-19T09:40:25.444Z,-1.63
2022-11-19T09:43:14.990Z,-1.67
2022-11-19T09:46:02.195Z,-1.65
2022-11-19T09:48:37.097Z,-1.66
2022-11-19T09:51:12.464Z,-1.70
2022-11-19T09:53:50.927Z,-1.64
2022-11-19T09:56:31.360Z,-1.66
2022-11-19T09:59:08.742Z,-1.58
2022-11-19T10:01:39.841Z,-1.58
2022-11-19T10:04:13.691Z,-1.49
2022-11-19T10:07:01.684Z,-1.44
2022-11-19T10:10:00.135Z,-1.34
2022-11-19T10:12:57.854Z,-1.31
2022-11-19T10:15:43.109Z,-1.29
2022-11-19T10:18:28.608Z,-1.20
2022-11-19T10:21:08.577Z,-1.19
2022-11-19T10:23:51.469Z,-1.16
2022-11-19T10:26:28.057Z,-1.17
2022-11-19T10:28:59.596Z,-1.17
2022-11-19T10:31:40.543Z,-1.13
2022-11-19T10:34:19.315Z,-1.08
2022-11-19T10:36:57.892Z,-1.09
2022-11-19T10:39:36.929Z,-1.11
2022-11-19T10:42:20.923Z,-1.08
2022-11-19T10:44:57.807Z,-1.08
2022-11-19T10:47:39.980Z,-1.07
2022-11-19T10:50:17.744Z,-1.06
2022-11-19T10:52:53.137Z,-1.05
2022-11-19T10:55:29.454Z,-1.07
2022-11-19T10:58:12.656Z,-0.99
2022-11-19T11:00:44.818Z,-0.95
2022-11-19T11:03:24.624Z,-0.99
2022-11-19T11:06:02.091Z,-0.93
2022-11-19T11:08:31.583Z,-0.91
2022-11-19T11:11:02.237Z,-0.92
2022-11-19T11:13:56.569Z,-1.01
2022-11-19T11:16:39.643Z,-0.95
2022-11-19T11:19:16.319Z,-0.91
2022-11-19T11:21:47.089Z,-0.86
2022-11-19T11:24:16.287Z,-0.85
2022-11-19T11:26:44.948Z,-0.87
2022-11-19T11:29:28.692Z,-0.85
2022-11-19T11:31:57.456Z,-0.84
2022-11-19T11:34:43.917Z,-0.85
2022-11-19T11:37:13.471Z,-0.82
2022-11-19T11:39:44.337Z,-0.81
2022-11-19T11:42:20.439Z,-0.81
2022-11-19T11:44:55.883Z,-0.83
2022-11-19T11:47:30.177Z,-0.79
2022-11-19T11:50:10.112Z,-0.79
2022-11-19T11:52:45.281Z,-0.76
2022-11-19T11:55:18.117Z,-0.79
2022-11-19T11:57:56.858Z,-0.74
2022-11-19T12:00:38.896Z,-0.68
2022-11-19T12:03:11.053Z,-0.69
2022-11-19T12:05:56.019Z,-0.69
2022-11-19T12:08:50.353Z,-0.64
2022-11-19T12:11:27.685Z,-0.65
2022-11-19T12:14:09.561Z,-0.59
2022-11-19T12:17:01.198Z,-0.54
2022-11-19T12:19:49.054Z,-0.52
2022-11-19T12:22:33.965Z,-0.52
2022-11-19T12:25:31.459Z,-0.54
2022-11-19T12:28:27.561Z,-0.50
2022-11-19T12:31:13.295Z,-0.56
2022-11-19T12:34:04.542Z,-0.53
2022-11-19T12:36:48.941Z,-0.59
2022-11-19T12:39:41.601Z,-0.56
2022-11-19T12:42:50.416Z,-0.57
2022-11-19T12:45:37.435Z,-0.61
2022-11-19T12:48:37.762Z,-0.58
2022-11-19T12:51:16.005Z,-0.62
2022-11-19T12:54:34.572Z,-0.57
2022-11-19T12:57:34.982Z,-0.62
2022-11-19T13:00:15.340Z,-0.65
2022-11-19T13:03:07.827Z,-0.71
2022-11-19T13:05:47.538Z,-0.73
2022-11-19T13:08:24.178Z,-0.71
2022-11-19T13:11:06.060Z,-0.70
2022-11-19T13:13:41.600Z,-0.71
2022-11-19T13:16:15.693Z,-0.72
2022-11-19T13:18:49.608Z,-0.78
2022-11-19T13:21:38.525Z,-0.71
2022-11-19T13:24:20.176Z,-0.71
2022-11-19T13:26:52.102Z,-0.75
2022-11-19T13:29:44.143Z,-0.84
2022-11-19T13:32:21.531Z,-0.81
2022-11-19T13:35:05.339Z,-0.78
2022-11-19T13:37:56.872Z,-0.77
2022-11-19T13:40:35.609Z,-0.97
2022-11-19T13:43:32.424Z,-1.01
2022-11-19T13:46:18.070Z,-0.90
2022-11-19T13:48:57.487Z,-0.91
2022-11-19T13:51:34.632Z,-0.93
2022-11-19T13:54:07.548Z,-0.87
2022-11-19T13:56:43.960Z,-0.86
2022-11-19T13:59:36.800Z,-0.99
2022-11-19T14:03:02.756Z,-1.07
2022-11-19T14:06:00.484Z,-1.05
2022-11-19T14:08:52.825Z,-1.05
2022-11-19T14:11:47.364Z,-1.09
2022-11-19T14:14:55.298Z,-1.03
2022-11-19T14:18:01.359Z,-1.02
2022-11-19T14:20:58.030Z,-0.98
2022-11-19T14:23:59.262Z,-0.93
2022-11-19T14:27:17.292Z,-1.02
2022-11-19T14:30:08.351Z,-1.07
2022-11-19T14:32:46.995Z,-1.03
2022-11-19T14:35:44.009Z,-1.03
2022-11-19T14:38:37.689Z,-1.01
2022-11-19T14:41:32.927Z,-1.00
2022-11-19T14:44:14.783Z,-1.00
2022-11-19T14:46:50.115Z,-1.00
2022-11-19T14:49:38.992Z,-1.11
2022-11-19T14:52:22.815Z,-1.24
2022-11-19T14:54:58.296Z,-1.25
2022-11-19T14:57:32.456Z,-1.31
2022-11-19T15:00:05.232Z,-1.33
2022-11-19T15:02:45.892Z,-1.39
2022-11-19T15:05:22.615Z,-1.35
2022-11-19T15:07:56.459Z,-1.26
2022-11-19T15:10:48.428Z,-1.31
2022-11-19T15:13:36.890Z,-1.32
2022-11-19T15:16:14.349Z,-1.28
2022-11-19T15:19:32.548Z,-1.40
2022-11-19T15:22:45.996Z,-1.53
2022-11-19T15:25:38.763Z,-1.60
2022-11-19T15:28:33.511Z,-1.53
2022-11-19T15:31:36.197Z,-1.44
2022-11-19T15:34:49.340Z,-1.45
2022-11-19T15:37:34.250Z,-1.64
2022-11-19T15:40:04.365Z,-1.75
2022-11-19T15:42:43.820Z,-1.73
2022-11-19T15:45:21.058Z,-1.67
2022-11-19T15:47:57.432Z,-1.60
2022-11-19T15:50:29.138Z,-1.59
2022-11-19T15:53:04.296Z,-1.58
2022-11-19T15:55:33.650Z,-1.57
2022-11-19T15:58:09.951Z,-1.77
2022-11-19T16:00:47.457Z,-1.89
2022-11-19T16:03:17.979Z,-1.96
2022-11-19T16:06:03.398Z,-2.02
2022-11-19T16:08:33.950Z,-2.03
2022-11-19T16:11:22.879Z,-2.06
2022-11-19T16:14:10.362Z,-2.09
2022-11-19T16:17:00.131Z,-2.15
2022-11-19T16:19:31.526Z,-2.20
2022-11-19T16:22:06.365Z,-2.11
2022-11-19T16:24:52.936Z,-2.23
2022-11-19T16:27:26.264Z,-2.28
2022-11-19T16:29:56.535Z,-2.30
2022-11-19T16:32:28.785Z,-2.26
2022-11-19T16:35:12.802Z,-2.11
2022-11-19T16:37:43.833Z,-2.16
2022-11-19T16:40:18.338Z,-2.26
2022-11-19T16:42:54.055Z,-2.18
2022-11-19T16:45:28.390Z,-2.14
2022-11-19T16:47:59.447Z,-2.26
2022-11-19T16:50:32.748Z,-2.35
2022-11-19T16:53:05.637Z,-2.42
2022-11-19T16:55:50.921Z,-2.37
2022-11-19T16:58:26.591Z,-2.44
2022-11-19T17:00:59.647Z,-2.54
2022-11-19T17:03:39.692Z,-2.57
2022-11-19T17:06:21.106Z,-2.63
2022-11-19T17:09:01.136Z,-2.51
2022-11-19T17:12:10.183Z,-2.37
2022-11-19T17:14:53.102Z,-2.40
2022-11-19T17:17:40.702Z,-2.31
2022-11-19T17:20:49.840Z,-2.57
2022-11-19T17:23:21.880Z,-2.59
2022-11-19T17:25:55.664Z,-2.61
2022-11-19T17:28:38.225Z,-2.57
2022-11-19T17:31:16.585Z,-2.51
2022-11-19T17:33:54.502Z,-2.49
2022-11-19T17:36:25.935Z,-2.59
2022-11-19T17:38:55.582Z,-2.63
2022-11-19T17:41:44.238Z,-2.74
2022-11-19T17:44:35.753Z,-2.83
2022-11-19T17:47:21.178Z,-2.69
2022-11-19T17:49:51.322Z,-2.57
2022-11-19T17:52:25.963Z,-2.58
2022-11-19T17:54:58.248Z,-2.78
2022-11-19T17:57:28.419Z,-2.72
2022-11-19T17:59:57.208Z,-2.63
2022-11-19T18:02:26.629Z,-2.58
2022-11-19T18:04:56.221Z,-2.57
2022-11-19T18:07:25.666Z,-2.66
2022-11-19T18:09:54.725Z,-2.83
2022-11-19T18:12:23.503Z,-2.90
2022-11-19T18:14:56.743Z,-2.89
2022-11-19T18:17:29.220Z,-2.96
2022-11-19T18:19:58.005Z,-2.87
2022-11-19T18:22:26.861Z,-2.77
2022-11-19T18:24:57.054Z,-2.72
2022-11-19T18:27:26.007Z,-2.68
2022-11-19T18:29:56.264Z,-2.65
2022-11-19T18:32:24.996Z,-2.91
2022-11-19T18:34:57.929Z,-3.08
2022-11-19T18:37:30.137Z,-3.08
2022-11-19T18:39:59.223Z,-3.19
2022-11-19T18:42:28.500Z,-3.21
2022-11-19T18:44:57.589Z,-3.31
2022-11-19T18:47:26.503Z,-3.24
2022-11-19T18:49:55.921Z,-3.13
2022-11-19T18:52:24.626Z,-3.18
2022-11-19T18:54:54.051Z,-3.19
2022-11-19T18:57:22.746Z,-3.24
2022-11-19T18:59:51.563Z,-3.29
2022-11-19T19:02:21.961Z,-3.13
2022-11-19T19:04:51.211Z,-3.10
2022-11-19T19:07:20.278Z,-3.14
2022-11-19T19:09:49.040Z,-3.15
2022-11-19T19:12:19.102Z,-3.29
2022-11-19T19:14:51.709Z,-3.28
2022-11-19T19:17:22.502Z,-3.28
2022-11-19T19:19:51.528Z,-3.27
2022-11-19T19:22:20.786Z,-3.37
2022-11-19T19:24:52.676Z,-3.46
2022-11-19T19:27:25.680Z,-3.49
2022-11-19T19:29:54.468Z,-3.43
2022-11-19T19:32:24.690Z,-3.42
2022-11-19T19:34:53.425Z,-3.39
2022-11-19T19:37:22.139Z,-3.41
2022-11-19T19:39:50.927Z,-3.35
2022-11-19T19:42:19.783Z,-3.30
2022-11-19T19:44:48.855Z,-3.51
2022-11-19T19:47:17.734Z,-3.48
2022-11-19T19:49:48.799Z,-3.47
2022-11-19T19:52:17.694Z,-3.55
2022-11-19T19:54:46.985Z,-3.52
2022-11-19T19:57:16.849Z,-3.41
2022-11-19T19:59:45.868Z,-3.33
2022-11-19T20:02:16.079Z,-3.34
2022-11-19T20:04:46.756Z,-3.54
2022-11-19T20:07:16.252Z,-3.63
2022-11-19T20:09:45.015Z,-3.64
2022-11-19T20:12:14.357Z,-3.56
2022-11-19T20:14:43.508Z,-3.52
2022-11-19T20:20:27.692Z,-3.69
2022-11-19T20:22:57.613Z,-3.72
2022-11-19T20:25:26.747Z,-3.78
2022-11-19T20:27:55.545Z,-3.64
2022-11-19T20:30:24.316Z,-3.59
2022-11-19T20:32:53.574Z,-3.58
2022-11-19T20:35:23.912Z,-3.70
2022-11-19T20:37:54.506Z,-3.60
2022-11-19T20:40:24.478Z,-3.67
2022-11-19T20:43:10.898Z,-3.65
2022-11-19T20:45:40.103Z,-3.63
2022-11-19T20:48:09.017Z,-3.72
2022-11-19T20:50:38.148Z,-3.69
2022-11-19T20:53:08.867Z,-3.62
2022-11-19T20:55:53.122Z,-3.59
2022-11-19T20:58:28.831Z,-3.61
2022-11-19T21:01:03.157Z,-3.55
2022-11-19T21:03:36.720Z,-3.68
2022-11-19T21:06:09.833Z,-3.67
2022-11-19T21:08:40.254Z,-3.86
2022-11-19T21:11:16.524Z,-3.87
2022-11-19T21:13:46.903Z,-3.73
2022-11-19T21:16:19.398Z,-3.73
2022-11-19T21:18:51.449Z,-3.93
2022-11-19T21:21:24.451Z,-3.89
2022-11-19T21:23:56.155Z,-3.75
2022-11-19T21:26:27.314Z,-3.82
2022-11-19T21:28:58.407Z,-3.97
2022-11-19T21:31:38.720Z,-3.86
2022-11-19T21:34:09.898Z,-3.92
2022-11-19T21:36:40.244Z,-3.79
2022-11-19T21:39:12.420Z,-3.69
2022-11-19T21:41:41.523Z,-3.83
2022-11-19T21:44:11.939Z,-3.94
2022-11-19T21:46:45.261Z,-3.84
2022-11-19T21:49:14.509Z,-3.76
2022-11-19T21:51:43.628Z,-3.74
2022-11-19T21:54:13.937Z,-3.67
2022-11-19T21:56:43.469Z,-3.65
2022-11-19T21:59:12.260Z,-3.79
2022-11-19T22:01:40.947Z,-4.02
2022-11-19T22:04:09.751Z,-3.83
2022-11-19T22:06:38.454Z,-3.90
2022-11-19T22:09:07.194Z,-3.79
2022-11-19T22:11:37.394Z,-3.93
2022-11-19T22:14:09.587Z,-3.92
2022-11-19T22:16:40.934Z,-3.98
2022-11-19T22:19:24.662Z,-3.95
2022-11-19T22:21:53.539Z,-4.13
2022-11-19T22:24:22.288Z,-4.21
2022-11-19T22:26:52.681Z,-4.10
2022-11-19T22:29:21.733Z,-4.05
2022-11-19T22:31:50.533Z,-3.99
2022-11-19T22:34:19.268Z,-4.17
2022-11-19T22:36:48.130Z,-4.14
2022-11-19T22:39:18.571Z,-4.29
2022-11-19T22:41:47.450Z,-4.19
2022-11-19T22:44:17.673Z,-4.29
2022-11-19T22:46:47.176Z,-4.34
2022-11-19T22:49:16.035Z,-4.20
2022-11-19T22:51:44.780Z,-4.11
2022-11-19T22:54:15.344Z,-4.07
2022-11-19T22:56:44.294Z,-4.01
2022-11-19T22:59:13.594Z,-3.96
2022-11-19T23:01:43.717Z,-3.91
2022-11-19T23:04:16.273Z,-3.89
2022-11-19T23:06:45.320Z,-4.14
2022-11-19T23:09:14.036Z,-4.04
2022-11-19T23:12:00.279Z,-3.96
2022-11-19T23:14:30.068Z,-4.07
2022-11-19T23:17:00.305Z,-4.28
2022-11-19T23:19:29.159Z,-4.33
2022-11-19T23:21:57.846Z,-4.37
2022-11-19T23:24:26.628Z,-4.35
2022-11-19T23:26:55.472Z,-4.21
2022-11-19T23:29:24.211Z,-4.31
2022-11-19T23:31:52.983Z,-4.44
2022-11-19T23:34:23.098Z,-4.44
2022-11-19T23:36:51.874Z,-4.60
2022-11-19T23:39:20.934Z,-4.68
2022-11-19T23:41:50.003Z,-4.59
2022-11-19T23:44:18.822Z,-4.43
2022-11-19T23:46:47.634Z,-4.40
2022-11-19T23:49:16.336Z,-4.38
2022-11-19T23:51:46.620Z,-4.28
2022-11-19T23:54:16.311Z,-4.21
2022-11-19T23:56:46.731Z,-4.46
2022-11-19T23:59:15.503Z,-4.63
